createdAt,value
2023-01-10T00:02:07.012Z,99978.03
2023-01-10T00:04:34.717Z,99988.78
2023-01-10T00:07:02.567Z,99995.47
2023-01-10T00:09:30.186Z,100002.72
2023-01-10T00:12:15.355Z,100007.09
2023-01-10T00:14:44.263Z,100001.88
2023-01-10T00:17:11.692Z,100008.34
2023-01-10T00:19:39.355Z,100011.78
2023-01-10T00:22:19.474Z,100018.72
2023-01-10T00:24:47.057Z,100014.53
2023-01-10T00:27:20.562Z,100020.88
2023-01-10T00:29:52.081Z,100000.63
2023-01-10T00:32:20.277Z,100012.94
2023-01-10T00:34:48.031Z,100025.72
2023-01-10T00:37:15.995Z,100032.66
2023-01-10T00:39:43.615Z,100036.56
2023-01-10T00:42:30.092Z,100032.19
2023-01-10T00:44:59.059Z,100021.03
2023-01-10T00:47:26.644Z,100023.91
2023-01-10T00:49:54.206Z,100027.81
2023-01-10T00:52:21.754Z,100030.88
2023-01-10T00:54:49.392Z,100026.16
2023-01-10T00:57:16.979Z,100020.00
2023-01-10T00:59:45.482Z,100040.75
2023-01-10T01:02:14.616Z,100036.84
2023-01-10T01:04:42.368Z,100024.56
2023-01-10T01:07:09.903Z,100023.75
2023-01-10T01:09:58.357Z,100030.22
2023-01-10T01:12:25.933Z,100029.84
2023-01-10T01:14:53.695Z,100023.25
2023-01-10T01:17:22.692Z,100024.88
2023-01-10T01:19:50.346Z,100032.63
2023-01-10T01:22:18.013Z,100035.44
2023-01-10T01:24:45.916Z,100021.63
2023-01-10T01:27:13.550Z,100019.53
2023-01-10T01:29:43.463Z,100020.69
2023-01-10T01:32:11.820Z,100010.03
2023-01-10T01:34:41.073Z,100011.94
2023-01-10T01:37:08.721Z,100007.22
2023-01-10T01:39:36.367Z,100007.59
2023-01-10T01:42:04.017Z,99996.03
2023-01-10T01:44:34.003Z,99995.41
2023-01-10T01:47:06.113Z,99996.41
2023-01-10T01:49:36.159Z,99909.28
2023-01-10T01:52:09.699Z,99979.53
2023-01-10T01:54:38.052Z,99990.22
2023-01-10T01:57:11.956Z,99981.97
2023-01-10T01:59:42.931Z,99980.34
2023-01-10T02:02:18.015Z,99972.34
2023-01-10T02:04:50.847Z,99970.28
2023-01-10T02:07:20.547Z,99968.78
2023-01-10T02:09:52.793Z,99964.47
2023-01-10T02:12:21.280Z,99976.44
2023-01-10T02:14:51.547Z,99964.41
2023-01-10T02:17:19.204Z,99965.59
2023-01-10T02:19:52.988Z,99966.09
2023-01-10T02:22:53.598Z,99969.56
2023-01-10T02:25:51.885Z,99969.03
2023-01-10T02:29:12.461Z,99969.19
2023-01-10T02:32:10.890Z,99959.28
2023-01-10T02:34:47.193Z,99961.34
2023-01-10T02:37:21.069Z,99979.31
2023-01-10T02:39:57.556Z,99973.50
2023-01-10T02:42:31.239Z,99978.41
2023-01-10T02:45:04.298Z,99978.75
2023-01-10T02:47:37.570Z,99991.97
2023-01-10T02:50:30.130Z,99990.03
2023-01-10T02:53:00.696Z,99999.41
2023-01-10T02:55:37.177Z,99998.34
2023-01-10T02:58:16.327Z,100003.53
2023-01-10T03:00:51.077Z,100016.94
2023-01-10T03:03:33.266Z,100023.41
2023-01-10T03:06:17.682Z,100039.59
2023-01-10T03:08:52.178Z,100049.47
2023-01-10T03:11:39.990Z,100054.34
2023-01-10T03:14:13.480Z,100056.72
2023-01-10T03:16:43.244Z,100063.34
2023-01-10T03:19:16.600Z,100066.28
2023-01-10T03:21:45.379Z,100071.19
2023-01-10T03:24:14.827Z,100075.41
2023-01-10T03:26:48.859Z,100070.69
2023-01-10T03:29:23.567Z,100083.28
2023-01-10T03:31:55.825Z,100087.81
2023-01-10T03:34:25.952Z,100093.66
2023-01-10T03:37:00.664Z,100103.69
2023-01-10T03:39:35.920Z,100106.94
2023-01-10T03:42:08.970Z,100111.31
2023-01-10T03:44:46.607Z,100108.03
2023-01-10T03:47:21.924Z,100110.84
2023-01-10T03:49:57.484Z,100114.41
2023-01-10T03:52:26.364Z,100119.91
2023-01-10T03:54:54.553Z,100129.81
2023-01-10T03:57:23.880Z,100127.25
2023-01-10T03:59:54.258Z,100125.00
2023-01-10T04:02:22.294Z,100129.19
2023-01-10T04:04:51.573Z,100127.06
2023-01-10T04:07:19.223Z,100128.03
2023-01-10T04:09:46.801Z,100130.50
2023-01-10T04:12:14.381Z,100135.53
2023-01-10T04:14:42.051Z,100126.97
2023-01-10T04:17:09.822Z,100137.00
2023-01-10T04:19:37.453Z,100133.75
2023-01-10T04:22:06.792Z,100132.25
2023-01-10T04:24:34.729Z,100131.31
2023-01-10T04:27:02.522Z,100097.25
2023-01-10T04:29:30.151Z,100137.81
2023-01-10T04:31:58.131Z,100142.00
2023-01-10T04:34:25.826Z,100144.94
2023-01-10T04:36:53.524Z,100125.00
2023-01-10T04:39:22.599Z,100131.97
2023-01-10T04:41:50.470Z,100134.72
2023-01-10T04:44:18.029Z,100134.03
2023-01-10T04:46:45.631Z,100141.81
2023-01-10T04:49:13.332Z,100144.22
2023-01-10T04:51:41.045Z,100132.88
2023-01-10T04:54:08.635Z,100137.63
2023-01-10T04:56:37.733Z,100151.78
2023-01-10T04:59:06.517Z,100161.34
2023-01-10T05:01:35.379Z,100159.06
2023-01-10T05:04:03.316Z,100163.31
2023-01-10T05:06:31.164Z,100159.28
2023-01-10T05:08:59.031Z,100153.91
2023-01-10T05:11:26.586Z,100172.56
2023-01-10T05:13:55.619Z,100185.34
2023-01-10T05:16:24.046Z,100204.59
2023-01-10T05:18:51.769Z,100204.97
2023-01-10T05:21:19.815Z,100200.72
2023-01-10T05:23:47.674Z,100216.31
2023-01-10T05:26:17.345Z,100229.22
2023-01-10T05:28:45.289Z,100231.97
2023-01-10T05:31:16.577Z,100234.72
2023-01-10T05:33:46.583Z,100238.78
2023-01-10T05:36:14.364Z,100243.59
2023-01-10T05:38:42.522Z,100251.22
2023-01-10T05:41:10.314Z,100248.63
2023-01-10T05:43:37.949Z,100255.75
2023-01-10T05:46:06.054Z,100259.63
2023-01-10T05:48:35.168Z,100260.91
2023-01-10T05:51:02.796Z,100249.91
2023-01-10T05:53:30.713Z,100248.78
2023-01-10T05:56:00.169Z,100254.47
2023-01-10T05:58:29.621Z,100243.91
2023-01-10T06:00:58.153Z,100256.06
2023-01-10T06:03:27.087Z,100251.88
2023-01-10T06:05:56.013Z,100257.56
2023-01-10T06:08:24.142Z,100268.06
2023-01-10T06:10:51.857Z,100263.50
2023-01-10T06:13:19.489Z,100271.28
2023-01-10T06:15:47.216Z,100281.31
2023-01-10T06:18:15.066Z,100281.50
2023-01-10T06:20:43.618Z,100275.19
2023-01-10T06:23:12.760Z,100277.78
2023-01-10T06:25:41.711Z,100271.66
2023-01-10T06:28:10.096Z,100274.25
2023-01-10T06:30:38.181Z,100268.72
2023-01-10T06:33:07.108Z,100282.00
2023-01-10T06:35:34.826Z,100287.50
2023-01-10T06:38:03.015Z,100273.56
2023-01-10T06:40:32.048Z,100285.06
2023-01-10T06:43:00.239Z,100291.69
2023-01-10T06:45:28.057Z,100295.09
2023-01-10T06:47:55.607Z,100300.13
2023-01-10T06:50:23.885Z,100295.59
2023-01-10T06:52:57.556Z,100310.97
2023-01-10T06:55:25.469Z,100290.50
2023-01-10T06:57:58.324Z,100268.63
2023-01-10T07:00:27.474Z,100325.34
2023-01-10T07:02:56.292Z,100246.66
2023-01-10T07:05:23.770Z,100302.69
2023-01-10T07:07:51.555Z,100299.59
2023-01-10T07:10:19.401Z,100323.75
2023-01-10T07:12:47.078Z,100326.00
2023-01-10T07:15:16.260Z,100270.38
2023-01-10T07:17:43.987Z,100315.75
2023-01-10T07:20:13.055Z,100346.56
2023-01-10T07:22:40.819Z,100318.16
2023-01-10T07:25:09.375Z,100357.75
2023-01-10T07:27:37.339Z,100365.50
2023-01-10T07:30:05.759Z,100355.81
2023-01-10T07:32:35.135Z,100353.22
2023-01-10T07:35:02.939Z,100355.81
2023-01-10T07:37:30.637Z,100321.47
2023-01-10T07:39:58.204Z,100350.66
2023-01-10T07:42:25.782Z,100351.31
2023-01-10T07:44:53.374Z,100353.56
2023-01-10T07:47:20.961Z,100351.13
2023-01-10T07:49:49.887Z,100352.41
2023-01-10T07:52:17.524Z,100358.56
2023-01-10T07:54:45.118Z,100360.53
2023-01-10T07:57:12.707Z,100358.41
2023-01-10T07:59:40.298Z,100353.91
2023-01-10T08:02:09.648Z,100362.97
2023-01-10T08:04:38.198Z,100354.50
2023-01-10T08:07:07.296Z,100368.94
2023-01-10T08:09:34.951Z,100384.59
2023-01-10T08:12:02.539Z,100381.00
2023-01-10T08:14:30.182Z,100385.50
2023-01-10T08:16:57.802Z,100392.44
2023-01-10T08:19:25.377Z,100388.22
2023-01-10T08:21:53.013Z,100385.47
2023-01-10T08:24:21.948Z,100392.88
2023-01-10T08:26:49.649Z,100397.69
2023-01-10T08:29:17.450Z,100386.69
2023-01-10T08:31:45.097Z,100386.19
2023-01-10T08:34:14.021Z,100383.06
2023-01-10T08:36:41.661Z,100386.47
2023-01-10T08:39:09.663Z,100382.41
2023-01-10T08:41:39.582Z,100387.88
2023-01-10T08:44:07.198Z,100394.34
2023-01-10T08:46:34.887Z,100383.44
2023-01-10T08:49:02.527Z,100379.38
2023-01-10T08:51:30.135Z,100378.53
2023-01-10T08:53:57.829Z,100375.34
2023-01-10T08:56:25.471Z,100371.09
2023-01-10T08:58:54.506Z,100365.41
2023-01-10T09:01:22.246Z,100359.75
2023-01-10T09:03:49.986Z,100370.81
2023-01-10T09:06:17.831Z,100375.75
2023-01-10T09:08:45.416Z,100368.00
2023-01-10T09:11:13.133Z,100377.44
2023-01-10T09:13:42.190Z,100367.28
2023-01-10T09:16:11.539Z,100368.13
2023-01-10T09:18:39.367Z,100365.19
2023-01-10T09:21:07.135Z,100368.41
2023-01-10T09:23:36.916Z,100366.00
2023-01-10T09:26:04.755Z,100368.13
2023-01-10T09:28:32.501Z,100375.25
2023-01-10T09:31:01.027Z,100358.94
2023-01-10T09:33:38.040Z,100357.66
2023-01-10T09:36:15.352Z,100359.09
2023-01-10T09:38:43.028Z,100361.38
2023-01-10T09:41:43.706Z,100364.63
2023-01-10T09:44:21.419Z,100368.31
2023-01-10T09:46:59.898Z,100367.22
2023-01-10T09:49:44.098Z,100366.69
2023-01-10T09:52:20.817Z,100368.97
2023-01-10T09:54:51.219Z,100374.09
2023-01-10T09:57:22.137Z,100377.06
2023-01-10T09:59:51.646Z,100374.69
2023-01-10T10:02:27.578Z,100375.16
2023-01-10T10:05:08.078Z,100382.00
2023-01-10T10:07:35.836Z,100381.00
2023-01-10T10:10:05.324Z,100378.56
2023-01-10T10:12:42.588Z,100368.03
2023-01-10T10:15:20.340Z,100372.56
2023-01-10T10:17:54.068Z,100387.78
2023-01-10T10:20:37.018Z,100386.38
2023-01-10T10:23:35.820Z,100379.19
2023-01-10T10:26:08.664Z,100397.47
2023-01-10T10:29:03.835Z,100393.56
2023-01-10T10:31:49.842Z,100389.34
2023-01-10T10:34:25.670Z,100393.56
2023-01-10T10:36:58.067Z,100402.34
2023-01-10T10:39:36.811Z,100395.19
2023-01-10T10:42:04.520Z,100309.19
2023-01-10T10:44:40.629Z,100376.44
2023-01-10T10:47:15.716Z,100383.66
2023-01-10T10:49:47.213Z,100380.88
2023-01-10T10:52:23.175Z,100388.19
2023-01-10T10:54:50.956Z,100369.75
2023-01-10T10:57:19.968Z,100369.59
2023-01-10T10:59:49.396Z,100358.91
2023-01-10T11:02:24.535Z,100377.63
2023-01-10T11:04:54.216Z,100378.28
2023-01-10T11:07:23.503Z,100372.66
2023-01-10T11:09:56.532Z,100368.09
2023-01-10T11:12:36.136Z,100365.53
2023-01-10T11:15:04.345Z,100265.50
2023-01-10T11:17:33.802Z,100338.94
2023-01-10T11:20:03.558Z,100364.78
2023-01-10T11:22:39.428Z,100366.41
2023-01-10T11:25:16.493Z,100289.03
2023-01-10T11:27:48.767Z,100196.34
2023-01-10T11:30:22.257Z,100357.47
2023-01-10T11:32:54.339Z,100350.84
2023-01-10T11:35:26.534Z,100272.09
2023-01-10T11:38:03.529Z,100256.19
2023-01-10T11:40:32.484Z,100348.56
2023-01-10T11:43:01.743Z,100338.44
2023-01-10T11:45:32.489Z,100343.78
2023-01-10T11:48:09.222Z,100349.56
2023-01-10T11:50:40.459Z,100352.34
2023-01-10T11:53:32.477Z,100336.16
2023-01-10T11:56:00.315Z,100332.13
2023-01-10T11:58:32.525Z,100310.56
2023-01-10T12:01:00.270Z,100324.31
2023-01-10T12:03:32.636Z,100326.00
2023-01-10T12:06:02.078Z,100324.38
2023-01-10T12:08:36.534Z,100315.16
2023-01-10T12:11:07.078Z,100307.56
2023-01-10T12:13:48.175Z,100303.19
2023-01-10T12:16:22.173Z,100293.31
2023-01-10T12:18:51.660Z,100291.56
2023-01-10T12:21:26.668Z,100288.81
2023-01-10T12:23:59.607Z,100287.34
2023-01-10T12:26:30.748Z,100282.84
2023-01-10T12:29:03.402Z,100283.78
2023-01-10T12:31:31.994Z,100276.69
2023-01-10T12:34:04.879Z,100291.28
2023-01-10T12:36:48.499Z,100273.13
2023-01-10T12:39:23.113Z,100283.34
2023-01-10T12:42:19.980Z,100281.88
2023-01-10T12:44:52.601Z,100270.22
2023-01-10T12:47:33.113Z,100277.81
2023-01-10T12:50:05.927Z,100266.69
2023-01-10T12:52:42.673Z,100264.72
2023-01-10T12:55:16.390Z,100264.38
2023-01-10T12:57:51.608Z,100253.88
2023-01-10T13:00:25.202Z,100254.19
2023-01-10T13:02:56.598Z,100243.34
2023-01-10T13:05:25.714Z,100226.00
2023-01-10T13:07:57.144Z,100237.97
2023-01-10T13:10:27.902Z,100222.75
2023-01-10T13:13:00.313Z,100225.19
2023-01-10T13:15:31.306Z,100220.50
2023-01-10T13:18:04.277Z,100213.03
2023-01-10T13:20:43.279Z,100204.47
2023-01-10T13:23:22.385Z,100211.41
2023-01-10T13:26:00.245Z,100207.84
2023-01-10T13:28:30.033Z,100203.78
2023-01-10T13:31:00.978Z,100203.94
2023-01-10T13:33:30.955Z,100191.63
2023-01-10T13:36:08.440Z,100201.00
2023-01-10T13:38:44.819Z,100197.44
2023-01-10T13:41:33.837Z,100214.13
2023-01-10T13:44:04.037Z,100201.00
2023-01-10T13:46:46.036Z,100190.63
2023-01-10T13:49:26.734Z,100190.78
2023-01-10T13:52:29.668Z,100194.03
2023-01-10T13:54:58.661Z,100190.47
2023-01-10T13:57:52.105Z,100182.50
2023-01-10T14:00:44.643Z,100181.06
2023-01-10T14:03:41.055Z,100158.53
2023-01-10T14:06:15.234Z,100158.25
2023-01-10T14:08:49.855Z,100126.56
2023-01-10T14:11:17.783Z,100135.13
2023-01-10T14:13:52.843Z,100085.78
2023-01-10T14:16:32.848Z,100108.72
2023-01-10T14:19:01.619Z,100106.50
2023-01-10T14:21:30.407Z,100089.69
2023-01-10T14:23:58.286Z,100070.09
2023-01-10T14:26:32.216Z,100053.09
2023-01-10T14:29:06.781Z,100038.16
2023-01-10T14:31:36.962Z,100028.63
2023-01-10T14:34:06.090Z,100018.44
2023-01-10T14:36:46.143Z,100003.56
2023-01-10T14:39:16.676Z,99997.56
2023-01-10T14:41:46.918Z,99978.78
2023-01-10T14:44:20.711Z,99945.19
2023-01-10T14:46:49.966Z,99952.25
2023-01-10T14:49:26.548Z,99936.09
2023-01-10T14:52:00.692Z,99914.91
2023-01-10T14:54:29.891Z,99899.03
2023-01-10T14:56:58.459Z,99888.19
2023-01-10T14:59:29.727Z,99881.22
2023-01-10T15:01:59.081Z,99870.41
2023-01-10T15:04:29.089Z,99859.06
2023-01-10T15:07:00.007Z,99849.03
2023-01-10T15:09:28.669Z,99839.81
2023-01-10T15:12:00.553Z,99818.94
2023-01-10T15:14:31.269Z,99808.31
2023-01-10T15:17:02.524Z,99790.03
2023-01-10T15:19:32.972Z,99781.28
2023-01-10T15:22:00.686Z,99765.91
2023-01-10T15:24:34.283Z,99750.53
2023-01-10T15:27:04.296Z,99747.16
2023-01-10T15:29:34.561Z,99710.72
2023-01-10T15:32:10.645Z,99688.75
2023-01-10T15:34:38.992Z,99692.63
2023-01-10T15:37:08.297Z,99688.41
2023-01-10T15:39:38.304Z,99670.13
2023-01-10T15:42:09.753Z,99665.09
2023-01-10T15:44:41.023Z,99643.75
2023-01-10T15:47:41.505Z,99628.22
2023-01-10T15:50:25.991Z,99580.69
2023-01-10T15:52:56.200Z,99615.81
2023-01-10T15:55:39.571Z,99556.03
2023-01-10T15:58:14.723Z,99558.84
2023-01-10T16:00:46.786Z,99534.91
2023-01-10T16:03:23.137Z,99524.78
2023-01-10T16:05:55.558Z,99495.03
2023-01-10T16:08:26.309Z,99487.53
2023-01-10T16:10:56.728Z,99434.19
2023-01-10T16:13:31.620Z,99414.28
2023-01-10T16:16:03.254Z,99399.09
2023-01-10T16:18:30.992Z,99382.94
2023-01-10T16:21:02.478Z,99356.25
2023-01-10T16:23:35.307Z,99340.09
2023-01-10T16:26:05.817Z,99307.09
2023-01-10T16:28:36.106Z,99299.59
2023-01-10T16:31:07.110Z,99280.56
2023-01-10T16:33:37.491Z,99253.91
2023-01-10T16:36:14.214Z,99239.53
2023-01-10T16:38:41.855Z,99233.38
2023-01-10T16:41:25.858Z,99213.06
2023-01-10T16:43:53.879Z,99204.28
2023-01-10T16:46:23.478Z,99201.94
2023-01-10T16:48:52.739Z,99193.22
2023-01-10T16:51:23.460Z,99182.22
2023-01-10T16:53:52.152Z,99178.84
2023-01-10T16:56:22.050Z,99153.16
2023-01-10T16:58:50.426Z,99147.78
2023-01-10T17:01:20.155Z,99138.41
2023-01-10T17:03:49.298Z,99114.16
2023-01-10T17:06:17.497Z,99119.31
2023-01-10T17:08:46.012Z,99097.44
2023-01-10T17:11:19.195Z,99072.41
2023-01-10T17:13:47.549Z,99096.84
2023-01-10T17:16:19.320Z,99072.56
2023-01-10T17:18:48.876Z,99057.03
2023-01-10T17:21:18.953Z,99029.91
2023-01-10T17:23:47.471Z,99027.34
2023-01-10T17:26:18.097Z,98986.63
2023-01-10T17:28:48.399Z,98993.78
2023-01-10T17:31:17.215Z,98961.75
2023-01-10T17:33:44.769Z,99018.50
2023-01-10T17:36:14.069Z,98976.09
2023-01-10T17:38:43.207Z,98981.69
2023-01-10T17:41:11.473Z,98964.78
2023-01-10T17:43:42.048Z,98915.75
2023-01-10T17:46:10.984Z,98949.47
2023-01-10T17:48:39.059Z,98945.13
2023-01-10T17:51:07.610Z,98953.13
2023-01-10T17:53:36.786Z,98857.34
2023-01-10T17:56:07.000Z,98920.47
2023-01-10T17:58:36.594Z,98899.34
2023-01-10T18:01:05.244Z,98886.03
2023-01-10T18:03:33.127Z,98871.47
2023-01-10T18:06:00.935Z,98887.47
2023-01-10T18:08:28.701Z,98858.16
2023-01-10T18:11:01.629Z,98764.78
2023-01-10T18:13:31.210Z,98856.38
2023-01-10T18:16:00.100Z,98836.03
2023-01-10T18:18:28.394Z,98777.59
2023-01-10T18:20:58.111Z,98843.06
2023-01-10T18:23:29.383Z,98834.31
2023-01-10T18:26:00.669Z,98754.94
2023-01-10T18:28:40.635Z,98793.66
2023-01-10T18:31:11.278Z,98749.78
2023-01-10T18:33:39.668Z,98813.78
2023-01-10T18:36:09.516Z,98810.19
2023-01-10T18:38:37.859Z,98810.59
2023-01-10T18:41:05.958Z,98764.16
2023-01-10T18:43:35.159Z,98817.78
2023-01-10T18:46:05.197Z,98787.88
2023-01-10T18:48:33.225Z,98714.16
2023-01-10T18:51:02.677Z,98783.06
2023-01-10T18:53:30.875Z,98778.28
2023-01-10T18:56:00.465Z,98698.81
2023-01-10T18:58:29.841Z,98775.28
2023-01-10T19:00:59.256Z,98758.88
2023-01-10T19:03:26.944Z,98735.06
2023-01-10T19:05:54.758Z,98757.25
2023-01-10T19:08:22.487Z,98717.59
2023-01-10T19:11:12.000Z,98741.53
2023-01-10T19:13:38.219Z,98691.97
2023-01-10T19:16:12.331Z,98680.38
2023-01-10T19:18:40.248Z,98707.06
2023-01-10T19:21:18.890Z,98782.41
2023-01-10T19:23:48.855Z,98733.72
2023-01-10T19:26:17.323Z,98728.06
2023-01-10T19:28:46.433Z,98711.50
2023-01-10T19:31:17.763Z,98695.94
2023-01-10T19:33:47.675Z,98649.63
2023-01-10T19:36:16.572Z,98695.88
2023-01-10T19:38:44.206Z,98687.09
2023-01-10T19:41:13.911Z,98669.31
2023-01-10T19:43:41.759Z,98695.41
2023-01-10T19:46:11.291Z,98690.22
2023-01-10T19:48:40.483Z,98686.00
2023-01-10T19:51:09.653Z,98681.03
2023-01-10T19:53:39.179Z,98646.97
2023-01-10T19:56:09.824Z,98678.44
2023-01-10T19:58:38.902Z,98679.03
2023-01-10T20:01:11.570Z,98676.44
2023-01-10T20:03:42.302Z,98638.38
2023-01-10T20:06:16.808Z,98665.97
2023-01-10T20:08:45.449Z,98667.56
2023-01-10T20:11:13.293Z,98581.34
2023-01-10T20:13:44.754Z,98665.78
2023-01-10T20:16:13.585Z,98645.31
2023-01-10T20:18:43.307Z,98653.19
2023-01-10T20:21:12.987Z,98653.19
2023-01-10T20:23:42.582Z,98617.66
2023-01-10T20:26:13.267Z,98643.53
2023-01-10T20:28:42.074Z,98625.53
2023-01-10T20:31:10.784Z,98622.47
2023-01-10T20:33:38.386Z,98614.69
2023-01-10T20:36:09.661Z,98519.13
2023-01-10T20:38:38.724Z,98589.28
2023-01-10T20:41:09.255Z,98528.34
2023-01-10T20:43:37.157Z,98578.09
2023-01-10T20:46:06.848Z,98566.69
2023-01-10T20:48:35.267Z,98580.19
2023-01-10T20:51:03.360Z,98593.75
2023-01-10T20:53:33.020Z,98544.88
2023-01-10T20:56:03.801Z,98590.56
2023-01-10T20:58:32.853Z,98568.28
2023-01-10T21:01:00.736Z,98522.78
2023-01-10T21:03:29.358Z,98558.09
2023-01-10T21:05:58.705Z,98461.69
2023-01-10T21:08:29.678Z,98492.75
2023-01-10T21:10:59.450Z,98562.16
2023-01-10T21:13:27.962Z,98564.56
2023-01-10T21:15:57.344Z,98546.25
2023-01-10T21:18:27.298Z,98567.44
2023-01-10T21:20:56.403Z,98564.63
2023-01-10T21:23:26.217Z,98503.69
2023-01-10T21:25:54.906Z,98528.38
2023-01-10T21:28:24.244Z,98533.94
2023-01-10T21:30:53.998Z,98496.44
2023-01-10T21:33:22.044Z,98491.88
2023-01-10T21:35:53.595Z,98526.84
2023-01-10T21:38:21.542Z,98475.78
2023-01-10T21:40:49.254Z,98513.78
2023-01-10T21:43:17.082Z,98472.59
2023-01-10T21:45:46.291Z,98480.66
2023-01-10T21:48:14.250Z,98494.16
2023-01-10T21:50:42.947Z,98447.91
2023-01-10T21:53:11.148Z,98508.72
2023-01-10T21:55:39.285Z,98456.25
2023-01-10T21:58:07.000Z,98470.09
2023-01-10T22:00:34.926Z,98470.09
2023-01-10T22:03:04.343Z,98444.66
2023-01-10T22:05:32.613Z,98419.38
2023-01-10T22:08:00.380Z,98444.66
2023-01-10T22:10:28.142Z,98434.44
2023-01-10T22:12:55.797Z,98425.16
2023-01-10T22:15:23.797Z,98427.53
2023-01-10T22:17:51.494Z,98416.91
2023-01-10T22:20:20.688Z,98362.69
2023-01-10T22:22:48.449Z,98312.31
2023-01-10T22:25:16.338Z,98398.88
2023-01-10T22:27:45.230Z,98371.38
2023-01-10T22:30:14.767Z,98380.78
2023-01-10T22:32:42.431Z,98364.38
2023-01-10T22:35:13.718Z,98297.88
2023-01-10T22:37:42.853Z,98259.06
2023-01-10T22:40:12.043Z,98334.88
2023-01-10T22:42:39.830Z,98286.56
2023-01-10T22:45:08.322Z,98324.47
2023-01-10T22:47:36.059Z,98322.09
2023-01-10T22:50:03.740Z,98305.22
2023-01-10T22:52:31.577Z,98264.66
2023-01-10T22:55:01.048Z,98296.28
2023-01-10T22:57:30.752Z,98275.00
2023-01-10T23:00:00.584Z,98256.16
2023-01-10T23:02:29.267Z,98191.03
2023-01-10T23:04:56.903Z,98253.59
2023-01-10T23:07:24.577Z,98187.06
2023-01-10T23:09:52.168Z,98200.84
2023-01-10T23:12:21.214Z,98210.97
2023-01-10T23:14:48.956Z,98225.41
2023-01-10T23:17:16.617Z,97955.81
2023-01-10T23:19:44.239Z,97628.53
2023-01-10T23:22:11.859Z,97727.63
2023-01-10T23:24:42.526Z,97716.47
2023-01-10T23:27:10.393Z,97785.63
2023-01-10T23:29:39.442Z,97791.47
2023-01-10T23:32:07.527Z,97747.13
2023-01-10T23:34:35.357Z,97676.78
2023-01-10T23:37:03.099Z,97719.75
2023-01-10T23:39:30.662Z,97801.53
2023-01-10T23:41:58.209Z,97779.66
2023-01-10T23:44:28.657Z,97763.00
2023-01-10T23:46:57.750Z,97803.16
2023-01-10T23:49:25.309Z,97751.09
2023-01-10T23:51:52.862Z,97733.66
2023-01-10T23:54:20.440Z,97731.81
2023-01-10T23:56:48.060Z,97710.63
2023-01-10T23:59:15.643Z,97755.34
